Terminal Aerodrome Forecast
Issued by NWS Green Bay, WI

Home | Current Version | Previous Version | Text Only | Print | Product List | Glossary Off
Versions: 1 2 3 4 5 6 7 8 9 10 11 12 13 14 15 16 17 18 19 20 21 22 23 24 25 26 27 28 29 30

000
FTUS43 KGRB 211100
TAFGRB
TAF
KGRB 211137Z 2112/2212 17005KT 5SM BR SCT020 OVC035
      TEMPO 2112/2113 BKN020
     FM211300 17006KT 3SM -FZDZ BR OVC012
     FM211700 16010KT 5SM -DZ BR OVC012
     FM212100 15012KT 4SM -SN BR OVC015
     FM220700 14010KT 4SM -FZDZSN BR SCT006 OVC012=

USA.gov is the U.S. government's official web portal to all federal, state and local government web resources and services.